createdAt,value
2022-09-06T00:00:59.793Z,4.57
2022-09-06T00:03:28.235Z,4.77
2022-09-06T00:05:55.271Z,4.73
2022-09-06T00:08:21.944Z,4.70
2022-09-06T00:10:48.512Z,4.70
2022-09-06T00:13:15.125Z,5.10
2022-09-06T00:15:41.839Z,5.00
2022-09-06T00:18:08.822Z,3.90
2022-09-06T00:20:38.938Z,3.93
2022-09-06T00:23:06.066Z,3.90
2022-09-06T00:25:33.477Z,3.80
2022-09-06T00:28:02.444Z,3.43
2022-09-06T00:30:29.978Z,3.97
2022-09-06T00:32:57.199Z,3.43
2022-09-06T00:35:25.801Z,3.33
2022-09-06T00:37:56.680Z,3.07
2022-09-06T00:40:23.327Z,2.87
2022-09-06T00:42:49.911Z,3.30
2022-09-06T00:45:16.543Z,3.27
2022-09-06T00:47:44.901Z,3.90
2022-09-06T00:50:14.512Z,4.10
2022-09-06T00:52:43.111Z,4.10
2022-09-06T00:55:10.324Z,3.70
2022-09-06T00:57:37.154Z,3.53
2022-09-06T01:00:08.693Z,2.97
2022-09-06T01:02:36.339Z,2.80
2022-09-06T01:05:05.085Z,2.67
2022-09-06T01:07:40.726Z,3.70
2022-09-06T01:10:19.640Z,4.10
2022-09-06T01:12:46.174Z,3.97
2022-09-06T01:15:47.704Z,3.77
2022-09-06T01:18:44.493Z,2.80
2022-09-06T01:22:02.014Z,2.77
2022-09-06T01:24:37.459Z,3.07
2022-09-06T01:27:37.763Z,2.40
2022-09-06T01:30:10.197Z,2.60
2022-09-06T01:32:55.106Z,3.03
2022-09-06T01:35:36.911Z,2.57
2022-09-06T01:38:05.720Z,2.80
2022-09-06T01:40:36.484Z,2.70
2022-09-06T01:43:11.160Z,2.60
2022-09-06T01:45:49.847Z,2.80
2022-09-06T01:48:40.113Z,3.37
2022-09-06T01:51:25.886Z,3.90
2022-09-06T01:54:23.612Z,3.93
2022-09-06T01:57:12.188Z,3.83
2022-09-06T02:00:11.106Z,3.90
2022-09-06T02:03:03.003Z,4.90
2022-09-06T02:05:35.006Z,4.13
2022-09-06T02:08:10.891Z,3.87
2022-09-06T02:10:44.397Z,3.50
2022-09-06T02:13:15.351Z,4.23
2022-09-06T02:15:52.227Z,3.90
2022-09-06T02:18:26.838Z,3.60
2022-09-06T02:20:56.940Z,3.23
2022-09-06T02:23:28.740Z,3.47
2022-09-06T02:26:05.491Z,3.50
2022-09-06T02:28:32.076Z,3.43
2022-09-06T02:31:04.217Z,3.87
2022-09-06T02:33:33.426Z,4.37
2022-09-06T02:36:06.934Z,3.07
2022-09-06T02:38:37.066Z,3.30
2022-09-06T02:41:05.649Z,3.53
2022-09-06T02:43:32.618Z,3.73
2022-09-06T02:45:59.260Z,3.37
2022-09-06T02:48:26.031Z,3.47
2022-09-06T02:50:52.654Z,3.33
2022-09-06T02:53:19.350Z,3.80
2022-09-06T02:55:47.686Z,3.60
2022-09-06T02:58:15.357Z,4.50
2022-09-06T03:00:42.301Z,4.00
2022-09-06T03:03:08.891Z,4.00
2022-09-06T03:05:35.860Z,4.30
2022-09-06T03:08:02.645Z,3.77
2022-09-06T03:10:29.525Z,3.63
2022-09-06T03:12:56.182Z,4.20
2022-09-06T03:15:22.796Z,4.10
2022-09-06T03:17:49.469Z,3.70
2022-09-06T03:20:16.078Z,3.80
2022-09-06T03:22:42.663Z,3.87
2022-09-06T03:25:10.586Z,3.63
2022-09-06T03:27:37.179Z,3.43
2022-09-06T03:30:05.951Z,3.60
2022-09-06T03:32:32.638Z,3.43
2022-09-06T03:34:59.670Z,3.70
2022-09-06T03:37:26.347Z,3.57
2022-09-06T03:39:53.456Z,3.63
2022-09-06T03:42:20.474Z,3.50
2022-09-06T03:44:47.095Z,3.40
2022-09-06T03:47:17.532Z,3.73
2022-09-06T03:49:46.804Z,3.53
2022-09-06T03:52:13.950Z,3.50
2022-09-06T03:54:40.851Z,4.30
2022-09-06T03:57:07.390Z,3.97
2022-09-06T03:59:34.004Z,4.17
2022-09-06T04:02:00.615Z,3.90
2022-09-06T04:04:27.259Z,3.93
2022-09-06T04:06:53.797Z,3.80
2022-09-06T04:09:20.453Z,3.60
2022-09-06T04:11:46.985Z,3.70
2022-09-06T04:14:13.573Z,3.67
2022-09-06T04:16:40.223Z,4.07
2022-09-06T04:19:06.976Z,3.97
2022-09-06T04:21:33.742Z,3.60
2022-09-06T04:24:00.311Z,4.20
2022-09-06T04:26:27.192Z,3.77
2022-09-06T04:28:53.802Z,4.20
2022-09-06T04:31:20.400Z,4.10
2022-09-06T04:33:47.084Z,4.53
2022-09-06T04:36:13.804Z,3.83
2022-09-06T04:38:42.786Z,4.00
2022-09-06T04:41:11.467Z,3.97
2022-09-06T04:43:38.155Z,4.17
2022-09-06T04:46:25.030Z,4.37
2022-09-06T04:48:53.163Z,4.30
2022-09-06T04:51:20.171Z,4.50
2022-09-06T04:53:47.220Z,4.63
2022-09-06T04:56:16.850Z,4.37
2022-09-06T04:58:44.424Z,4.97
2022-09-06T05:01:11.294Z,4.77
2022-09-06T05:03:38.041Z,4.53
2022-09-06T05:06:24.461Z,5.00
2022-09-06T05:08:51.715Z,4.80
2022-09-06T05:11:18.755Z,4.10
2022-09-06T05:13:46.037Z,4.10
2022-09-06T05:16:12.849Z,3.93
2022-09-06T05:18:39.498Z,4.20
2022-09-06T05:21:06.277Z,4.57
2022-09-06T05:23:33.101Z,4.30
2022-09-06T05:25:59.643Z,4.77
2022-09-06T05:28:26.324Z,4.67
2022-09-06T05:30:53.040Z,4.23
2022-09-06T05:33:22.074Z,4.27
2022-09-06T05:35:49.623Z,4.37
2022-09-06T05:38:16.556Z,4.60
2022-09-06T05:40:43.459Z,4.83
2022-09-06T05:43:10.141Z,4.40
2022-09-06T05:45:36.867Z,4.90
2022-09-06T05:48:03.731Z,4.70
2022-09-06T05:50:30.313Z,4.70
2022-09-06T05:52:56.880Z,5.13
2022-09-06T05:55:23.500Z,5.17
2022-09-06T05:57:50.097Z,4.80
2022-09-06T06:00:16.843Z,5.10
2022-09-06T06:02:43.970Z,4.90
2022-09-06T06:05:10.618Z,5.40
2022-09-06T06:07:37.205Z,4.43
2022-09-06T06:10:04.491Z,4.60
2022-09-06T06:12:31.052Z,4.60
2022-09-06T06:14:57.636Z,5.47
2022-09-06T06:17:24.277Z,4.97
2022-09-06T06:19:51.194Z,4.47
2022-09-06T06:22:17.801Z,4.73
2022-09-06T06:24:44.345Z,4.70
2022-09-06T06:27:10.923Z,4.07
2022-09-06T06:29:37.510Z,4.30
2022-09-06T06:32:04.163Z,4.20
2022-09-06T06:34:31.195Z,4.93
2022-09-06T06:36:58.236Z,4.30
2022-09-06T06:39:24.934Z,3.90
2022-09-06T06:41:51.570Z,4.30
2022-09-06T06:44:18.233Z,4.70
2022-09-06T06:46:45.074Z,4.60
2022-09-06T06:49:11.631Z,4.60
2022-09-06T06:51:38.284Z,4.73
2022-09-06T06:54:05.878Z,3.83
2022-09-06T06:56:37.850Z,4.27
2022-09-06T06:59:07.088Z,4.07
2022-09-06T07:01:35.538Z,4.13
2022-09-06T07:04:02.858Z,4.30
2022-09-06T07:09:18.256Z,4.20
2022-09-06T07:11:45.158Z,4.13
2022-09-06T07:14:11.875Z,3.87
2022-09-06T07:16:39.652Z,3.87
2022-09-06T07:19:06.964Z,3.50
2022-09-06T07:24:08.434Z,4.20
2022-09-06T07:26:38.185Z,3.67
2022-09-06T07:29:06.323Z,3.73
2022-09-06T07:34:22.194Z,3.60
2022-09-06T07:36:51.677Z,3.83
2022-09-06T07:39:18.259Z,2.90
2022-09-06T07:41:44.950Z,3.17
2022-09-06T07:44:11.787Z,3.03
2022-09-06T07:46:38.793Z,3.60
2022-09-06T07:49:06.582Z,3.07
2022-09-06T07:51:33.385Z,3.23
2022-09-06T07:54:28.840Z,3.03
2022-09-06T07:56:46.786Z,3.13
2022-09-06T07:59:13.465Z,2.50
2022-09-06T08:01:40.485Z,2.80
2022-09-06T08:04:14.266Z,2.60
2022-09-06T08:09:30.726Z,2.80
2022-09-06T08:11:57.445Z,2.70
2022-09-06T08:14:24.090Z,2.30
2022-09-06T08:16:50.942Z,2.50
2022-09-06T08:19:18.524Z,2.60
2022-09-06T08:21:45.218Z,2.40
2022-09-06T08:24:11.808Z,2.20
2022-09-06T08:26:40.710Z,2.10
2022-09-06T08:29:08.814Z,2.53
2022-09-06T08:31:38.193Z,2.40
2022-09-06T08:34:05.462Z,2.13
2022-09-06T08:36:32.737Z,2.30
2022-09-06T08:39:05.426Z,2.70
2022-09-06T08:41:35.085Z,2.50
2022-09-06T08:47:06.526Z,2.50
2022-09-06T08:49:38.360Z,2.40
2022-09-06T08:52:13.923Z,2.27
2022-09-06T08:54:48.902Z,2.60
2022-09-06T08:57:21.603Z,2.60
2022-09-06T08:59:50.638Z,2.30
2022-09-06T09:02:20.220Z,2.57
2022-09-06T09:05:02.372Z,2.20
2022-09-06T09:07:45.024Z,2.60
2022-09-06T09:10:22.032Z,2.60
2022-09-06T09:12:50.010Z,2.20
2022-09-06T09:15:18.925Z,2.20
2022-09-06T09:17:47.538Z,2.50
2022-09-06T09:20:14.271Z,2.50
2022-09-06T09:22:42.659Z,2.20
2022-09-06T09:25:16.361Z,2.80
2022-09-06T09:27:44.739Z,2.63
2022-09-06T09:32:58.668Z,2.63
2022-09-06T09:35:36.898Z,2.50
2022-09-06T09:38:13.053Z,2.30
2022-09-06T09:40:42.814Z,2.60
2022-09-06T09:43:15.391Z,2.30
2022-09-06T09:45:43.360Z,2.67
2022-09-06T09:48:17.647Z,2.47
2022-09-06T09:50:44.436Z,2.63
2022-09-06T09:53:13.818Z,2.40
2022-09-06T09:55:41.292Z,2.50
2022-09-06T09:58:20.359Z,2.40
2022-09-06T10:00:46.973Z,2.00
2022-09-06T10:03:13.548Z,2.60
2022-09-06T10:05:41.412Z,2.30
2022-09-06T10:08:13.088Z,2.53
2022-09-06T10:10:43.158Z,2.50
2022-09-06T10:13:20.499Z,2.80
2022-09-06T10:15:48.161Z,2.60
2022-09-06T10:18:20.785Z,2.47
2022-09-06T10:20:54.513Z,2.80
2022-09-06T10:26:49.387Z,2.50
2022-09-06T10:29:38.420Z,2.40
2022-09-06T10:32:42.612Z,2.97
2022-09-06T10:35:18.904Z,2.77
2022-09-06T10:38:13.490Z,2.43
2022-09-06T10:40:57.289Z,2.50
2022-09-06T10:43:27.599Z,3.30
2022-09-06T10:45:58.387Z,3.20
2022-09-06T10:48:35.066Z,3.83
2022-09-06T10:51:10.038Z,3.17
2022-09-06T10:53:51.755Z,3.17
2022-09-06T10:56:36.244Z,2.77
2022-09-06T11:02:02.855Z,2.90
2022-09-06T11:07:38.213Z,2.77
2022-09-06T11:10:14.443Z,2.97
2022-09-06T11:12:59.251Z,3.03
2022-09-06T11:15:31.737Z,3.50
2022-09-06T11:18:09.744Z,2.80
2022-09-06T11:20:42.723Z,2.90
2022-09-06T11:23:12.113Z,2.90
2022-09-06T11:26:09.846Z,2.73
2022-09-06T11:28:55.597Z,3.60
2022-09-06T11:34:33.946Z,2.83
2022-09-06T11:37:03.791Z,2.40
2022-09-06T11:42:44.627Z,3.23
2022-09-06T11:45:11.174Z,2.50
2022-09-06T11:47:42.024Z,2.90
2022-09-06T11:51:15.731Z,2.20
2022-09-06T11:53:51.094Z,2.67
2022-09-06T11:56:47.029Z,2.50
2022-09-06T11:59:16.278Z,2.53
2022-09-06T12:02:00.243Z,2.57
2022-09-06T12:05:00.455Z,2.50
2022-09-06T12:07:28.515Z,2.90
2022-09-06T12:09:55.095Z,2.60
2022-09-06T12:12:40.269Z,2.83
2022-09-06T12:15:25.565Z,3.10
2022-09-06T12:17:52.752Z,2.90
2022-09-06T12:20:48.592Z,2.63
2022-09-06T12:23:35.522Z,2.53
2022-09-06T12:26:04.245Z,2.80
2022-09-06T12:28:34.980Z,2.97
2022-09-06T12:31:02.244Z,2.63
2022-09-06T12:33:32.935Z,2.77
2022-09-06T12:36:22.924Z,3.00
2022-09-06T12:38:57.562Z,2.70
2022-09-06T12:41:26.969Z,2.57
2022-09-06T12:43:55.890Z,2.57
2022-09-06T12:46:25.655Z,2.40
2022-09-06T12:49:09.498Z,2.50
2022-09-06T12:51:38.459Z,2.60
2022-09-06T12:54:23.405Z,3.13
2022-09-06T12:56:51.204Z,2.30
2022-09-06T12:59:17.785Z,2.73
2022-09-06T13:01:49.566Z,2.20
2022-09-06T13:04:32.753Z,2.60
2022-09-06T13:07:03.101Z,2.70
2022-09-06T13:09:31.793Z,2.80
2022-09-06T13:12:18.288Z,2.50
2022-09-06T13:14:44.977Z,2.53
2022-09-06T13:17:29.731Z,2.37
2022-09-06T13:19:58.283Z,2.40
2022-09-06T13:22:43.742Z,2.60
2022-09-06T13:25:23.959Z,2.40
2022-09-06T13:27:58.552Z,2.70
2022-09-06T13:30:37.835Z,2.60
2022-09-06T13:33:07.048Z,2.45
2022-09-06T13:35:37.337Z,1.88
2022-09-06T13:38:31.187Z,2.13
2022-09-06T13:41:16.619Z,2.00
2022-09-06T13:43:47.739Z,1.70
2022-09-06T13:46:14.520Z,1.88
2022-09-06T13:48:43.217Z,2.00
2022-09-06T13:51:09.925Z,2.42
2022-09-06T13:53:36.579Z,2.40
2022-09-06T13:56:05.172Z,2.10
2022-09-06T13:58:31.765Z,2.10
2022-09-06T14:00:58.696Z,1.80
2022-09-06T14:03:30.999Z,2.30
2022-09-06T14:06:00.372Z,2.42
2022-09-06T14:08:43.844Z,1.77
2022-09-06T14:11:17.490Z,2.22
2022-09-06T14:13:44.394Z,3.03
2022-09-06T14:16:11.557Z,3.42
2022-09-06T14:18:38.357Z,2.53
2022-09-06T14:21:05.756Z,2.85
2022-09-06T14:23:32.440Z,4.22
2022-09-06T14:26:01.859Z,4.40
2022-09-06T14:28:31.208Z,3.38
2022-09-06T14:30:57.930Z,2.70
2022-09-06T14:33:24.745Z,2.35
2022-09-06T14:35:51.344Z,2.30
2022-09-06T14:38:17.941Z,2.35
2022-09-06T14:40:44.631Z,1.90
2022-09-06T14:43:11.355Z,2.00
2022-09-06T14:45:38.010Z,1.92
2022-09-06T14:48:05.635Z,1.90
2022-09-06T14:50:32.405Z,2.08
2022-09-06T14:52:59.358Z,1.95
2022-09-06T14:55:28.141Z,1.65
2022-09-06T14:57:55.080Z,1.40
2022-09-06T15:00:22.871Z,1.85
2022-09-06T15:02:49.500Z,1.65
2022-09-06T15:05:16.391Z,1.83
2022-09-06T15:07:43.275Z,2.00
2022-09-06T15:10:10.403Z,2.10
2022-09-06T15:12:37.565Z,1.80
2022-09-06T15:15:05.382Z,1.85
2022-09-06T15:17:34.410Z,2.10
2022-09-06T15:20:01.289Z,1.60
2022-09-06T15:22:28.080Z,1.70
2022-09-06T15:24:54.848Z,1.83
2022-09-06T15:27:21.716Z,1.90
2022-09-06T15:29:48.366Z,1.70
2022-09-06T15:32:14.979Z,1.50
2022-09-06T15:34:41.604Z,1.73
2022-09-06T15:37:08.319Z,1.80
2022-09-06T15:39:35.088Z,1.70
2022-09-06T15:42:01.773Z,1.90
2022-09-06T15:44:28.515Z,1.40
2022-09-06T15:47:00.736Z,1.70
2022-09-06T15:49:32.367Z,1.60
2022-09-06T15:52:01.522Z,1.60
2022-09-06T15:54:47.928Z,1.83
2022-09-06T15:57:16.942Z,1.90
2022-09-06T15:59:44.091Z,2.00
2022-09-06T16:02:14.323Z,2.13
2022-09-06T16:04:41.049Z,2.00
2022-09-06T16:07:07.768Z,2.00
2022-09-06T16:09:34.508Z,2.23
2022-09-06T16:12:01.144Z,1.63
2022-09-06T16:14:29.173Z,2.37
2022-09-06T16:16:56.452Z,2.20
2022-09-06T16:19:25.949Z,4.67
2022-09-06T16:21:52.755Z,3.87
2022-09-06T16:24:19.413Z,4.33
2022-09-06T16:26:46.769Z,2.27
2022-09-06T16:29:16.430Z,2.70
2022-09-06T16:31:43.185Z,2.40
2022-09-06T16:34:10.490Z,2.90
2022-09-06T16:36:37.836Z,2.70
2022-09-06T16:39:06.146Z,2.30
2022-09-06T16:41:44.914Z,2.60
2022-09-06T16:44:17.578Z,1.97
2022-09-06T16:46:49.712Z,2.30
2022-09-06T16:49:18.107Z,2.40
2022-09-06T16:51:45.905Z,2.27
2022-09-06T16:54:14.075Z,1.97
2022-09-06T16:56:41.706Z,2.07
2022-09-06T16:59:10.364Z,2.60
2022-09-06T17:01:38.983Z,2.40
2022-09-06T17:04:05.947Z,2.20
2022-09-06T17:06:34.210Z,1.80
2022-09-06T17:09:00.963Z,2.00
2022-09-06T17:11:29.001Z,2.20
2022-09-06T17:13:57.306Z,3.10
2022-09-06T17:16:43.604Z,3.80
2022-09-06T17:19:10.816Z,2.50
2022-09-06T17:21:48.999Z,2.40
2022-09-06T17:24:15.793Z,2.10
2022-09-06T17:26:42.630Z,2.33
2022-09-06T17:29:10.541Z,2.07
2022-09-06T17:31:37.917Z,2.10
2022-09-06T17:34:05.416Z,2.03
2022-09-06T17:36:33.506Z,2.17
2022-09-06T17:39:08.947Z,2.60
2022-09-06T17:41:39.007Z,2.60
2022-09-06T17:44:07.655Z,2.40
2022-09-06T17:46:34.281Z,2.20
2022-09-06T17:49:01.006Z,2.37
2022-09-06T17:51:28.081Z,2.70
2022-09-06T17:53:54.857Z,2.80
2022-09-06T17:56:22.030Z,2.70
2022-09-06T17:59:09.941Z,2.50
2022-09-06T18:01:38.964Z,2.47
2022-09-06T18:04:06.455Z,2.47
2022-09-06T18:06:34.548Z,2.50
2022-09-06T18:09:10.075Z,2.77
2022-09-06T18:11:39.844Z,2.90
2022-09-06T18:14:12.502Z,2.60
2022-09-06T18:16:40.534Z,2.53
2022-09-06T18:19:08.458Z,2.77
2022-09-06T18:21:38.113Z,2.80
2022-09-06T18:24:05.493Z,3.10
2022-09-06T18:26:32.401Z,3.30
2022-09-06T18:28:59.023Z,3.90
2022-09-06T18:31:27.296Z,3.80
2022-09-06T18:33:58.091Z,2.77
2022-09-06T18:36:28.700Z,2.53
2022-09-06T18:39:02.519Z,2.60
2022-09-06T18:41:47.534Z,2.37
2022-09-06T18:44:14.658Z,2.73
2022-09-06T18:46:41.258Z,2.27
2022-09-06T18:49:08.142Z,2.27
2022-09-06T18:51:35.080Z,2.70
2022-09-06T18:54:02.343Z,2.80
2022-09-06T18:56:29.000Z,3.00
2022-09-06T18:59:00.706Z,2.60
2022-09-06T19:01:29.545Z,2.83
2022-09-06T19:03:57.744Z,2.53
2022-09-06T19:06:24.424Z,2.40
2022-09-06T19:08:53.825Z,2.30
2022-09-06T19:11:21.915Z,2.60
2022-09-06T19:13:52.769Z,3.20
2022-09-06T19:16:20.644Z,3.27
2022-09-06T19:18:47.283Z,3.33
2022-09-06T19:21:17.533Z,3.00
2022-09-06T19:23:47.106Z,3.07
2022-09-06T19:26:22.416Z,3.07
2022-09-06T19:28:57.753Z,2.60
2022-09-06T19:31:27.609Z,2.63
2022-09-06T19:33:55.201Z,2.90
2022-09-06T19:36:23.392Z,2.90
2022-09-06T19:39:04.015Z,2.97
2022-09-06T19:41:34.038Z,3.10
2022-09-06T19:44:01.724Z,2.90
2022-09-06T19:46:28.360Z,2.80
2022-09-06T19:48:58.410Z,2.87
2022-09-06T19:51:25.385Z,2.47
2022-09-06T19:53:54.391Z,2.80
2022-09-06T19:56:33.542Z,2.60
2022-09-06T19:59:06.284Z,2.90
2022-09-06T20:01:34.510Z,2.77
2022-09-06T20:04:02.916Z,2.80
2022-09-06T20:06:30.606Z,2.67
2022-09-06T20:08:58.723Z,3.00
2022-09-06T20:11:28.280Z,3.10
2022-09-06T20:13:55.330Z,3.17
2022-09-06T20:16:24.860Z,3.60
2022-09-06T20:18:52.523Z,3.13
2022-09-06T20:21:19.227Z,3.10
2022-09-06T20:23:50.673Z,3.20
2022-09-06T20:26:18.445Z,3.20
2022-09-06T20:28:45.580Z,3.47
2022-09-06T20:31:16.434Z,3.50
2022-09-06T20:33:48.484Z,3.30
2022-09-06T20:36:17.112Z,3.57
2022-09-06T20:38:45.120Z,3.10
2022-09-06T20:41:15.061Z,3.00
2022-09-06T20:43:42.631Z,3.73
2022-09-06T20:46:14.150Z,3.50
2022-09-06T20:48:44.654Z,3.53
2022-09-06T20:51:18.841Z,3.60
2022-09-06T20:53:48.127Z,3.17
2022-09-06T20:56:17.225Z,3.00
2022-09-06T20:58:49.360Z,2.77
2022-09-06T21:01:22.888Z,2.93
2022-09-06T21:03:52.309Z,3.17
2022-09-06T21:06:20.474Z,3.73
2022-09-06T21:08:48.001Z,3.10
2022-09-06T21:11:15.081Z,3.10
2022-09-06T21:13:41.817Z,3.33
2022-09-06T21:16:09.104Z,3.40
2022-09-06T21:18:36.231Z,3.27
2022-09-06T21:21:06.055Z,2.67
2022-09-06T21:23:38.202Z,2.90
2022-09-06T21:26:10.230Z,3.10
2022-09-06T21:28:38.983Z,2.83
2022-09-06T21:31:18.107Z,2.30
2022-09-06T21:33:47.602Z,2.20
2022-09-06T21:36:16.731Z,2.17
2022-09-06T21:38:48.727Z,2.50
2022-09-06T21:41:18.330Z,1.97
2022-09-06T21:43:45.566Z,2.13
2022-09-06T21:46:18.347Z,1.90
2022-09-06T21:48:47.453Z,2.00
2022-09-06T21:51:16.591Z,1.97
2022-09-06T21:53:46.150Z,2.20
2022-09-06T21:56:13.403Z,2.30
2022-09-06T21:58:40.412Z,2.53
2022-09-06T22:01:07.820Z,1.90
2022-09-06T22:03:42.530Z,1.80
2022-09-06T22:06:13.460Z,1.77
2022-09-06T22:08:43.268Z,2.10
2022-09-06T22:11:09.971Z,2.20
2022-09-06T22:13:36.739Z,1.97
2022-09-06T22:16:07.814Z,1.90
2022-09-06T22:18:34.842Z,2.17
2022-09-06T22:21:27.769Z,1.80
2022-09-06T22:23:59.526Z,2.03
2022-09-06T22:26:28.588Z,1.83
2022-09-06T22:29:05.130Z,1.80
2022-09-06T22:31:33.487Z,1.87
2022-09-06T22:34:00.490Z,1.70
2022-09-06T22:36:27.955Z,1.80
2022-09-06T22:38:58.648Z,2.13
2022-09-06T22:41:27.236Z,1.87
2022-09-06T22:43:54.211Z,1.80
2022-09-06T22:46:21.238Z,1.60
2022-09-06T22:48:49.408Z,1.33
2022-09-06T22:51:16.279Z,1.63
2022-09-06T22:53:42.911Z,1.80
2022-09-06T22:56:09.553Z,1.80
2022-09-06T22:58:36.257Z,1.60
2022-09-06T23:01:12.074Z,1.63
2022-09-06T23:03:39.301Z,1.83
2022-09-06T23:06:06.053Z,1.80
2022-09-06T23:08:34.687Z,1.83
2022-09-06T23:11:07.138Z,1.70
2022-09-06T23:13:34.715Z,1.60
2022-09-06T23:16:06.635Z,1.60
2022-09-06T23:18:33.831Z,1.80
2022-09-06T23:21:20.870Z,1.50
2022-09-06T23:23:49.413Z,1.63
2022-09-06T23:26:19.324Z,1.90
2022-09-06T23:28:46.196Z,10.20
2022-09-06T23:31:15.150Z,21.53
2022-09-06T23:33:42.084Z,6.67
2022-09-06T23:36:11.348Z,3.13
2022-09-06T23:38:39.652Z,2.30
2022-09-06T23:41:08.462Z,2.17
2022-09-06T23:43:35.110Z,1.97
2022-09-06T23:46:01.763Z,2.17
2022-09-06T23:48:28.870Z,1.63
2022-09-06T23:50:55.644Z,1.57
2022-09-06T23:53:22.226Z,1.60
2022-09-06T23:55:48.815Z,1.30
2022-09-06T23:58:15.703Z,1.77
